Terminal Aerodrome Forecast
Issued by NWS

Home | Current Version | Previous Version | Text Only | Print | Product List | Glossary On
Versions: 1 2 3 4 5 6 7 8 9 10 11 12 13
000
FTUS42 KMLB 301100
TAFISM
TAF
KISM 301126Z 3012/3112 00000KT P6SM SCT250
     FM301400 16005KT P6SM SCT035
     FM301800 12009KT P6SM VCTS SCT040CB
     FM310000 12003KT P6SM SCT100 BKN250
     FM310800 00000KT P6SM SCT250=

USA.gov is the U.S. government's official web portal to all federal, state and local government web resources and services.